Time;durP1;ratioP1;P1;durP2;ratioP2;P2;SDS_P1;SDS_P2;PMS_P1;PMS_P2;Temp;Humidity;BMP_temperature;BMP_pressure;BME280_temperature;BME280_humidity;BME280_pressure;Samples;Min_cycle;Max_cycle;Signal;HPM_P1;HPM_P2
2021/06/23 00:01:37;;;;;;;6.55;4.22;;;;;;;14.52;55.89;101443.63;8035528;28;20046;-73
2021/06/23 00:05:28;;;;;;;7.38;4.18;;;;;;;14.48;55.99;101452.75;8038617;28;20627;-74
2021/06/23 00:09:19;;;;;;;7.15;3.80;;;;;;;14.45;55.92;101455.63;8038999;28;20113;-74
2021/06/23 00:13:10;;;;;;;7.72;4.60;;;;;;;14.44;55.94;101461.00;8038153;28;20029;-73
2021/06/23 00:17:00;;;;;;;7.18;4.10;;;;;;;14.41;55.94;101464.69;8036896;28;20111;-74
2021/06/23 00:20:51;;;;;;;8.20;3.72;;;;;;;14.38;56.01;101469.38;8038033;28;20042;-73
2021/06/23 00:24:42;;;;;;;7.15;3.63;;;;;;;14.34;55.69;101469.56;8037647;28;20036;-73
2021/06/23 00:28:32;;;;;;;6.97;4.03;;;;;;;14.32;55.90;101468.00;8038523;28;20036;-73
2021/06/23 00:32:24;;;;;;;6.22;4.03;;;;;;;14.33;56.02;101477.63;8030331;28;20656;-73
2021/06/23 00:36:14;;;;;;;9.63;3.75;;;;;;;14.28;55.79;101463.88;8036887;28;20062;-73
2021/06/23 00:40:06;;;;;;;7.35;3.72;;;;;;;14.28;55.88;101471.81;8038420;28;20037;-73
2021/06/23 00:43:57;;;;;;;6.55;3.58;;;;;;;14.25;55.77;101477.31;8038161;28;20081;-73
2021/06/23 00:47:53;;;;;;;5.45;3.88;;;;;;;14.21;55.86;101474.06;8037932;28;20047;-73
2021/06/23 00:51:45;;;;;;;9.45;3.80;;;;;;;14.18;55.91;101473.41;8036669;28;20120;-73
2021/06/23 00:55:53;;;;;;;8.80;3.75;;;;;;;14.18;55.83;101478.69;8036701;28;20477;-73
2021/06/23 00:59:48;;;;;;;6.75;4.07;;;;;;;14.11;55.71;101475.66;8035921;28;20032;-74
2021/06/23 01:03:40;;;;;;;9.18;3.53;;;;;;;14.10;55.83;101471.31;8023454;28;20106;-73
2021/06/23 01:07:35;;;;;;;4.70;3.50;;;;;;;14.13;55.65;101473.75;8037440;28;20024;-74
2021/06/23 01:11:40;;;;;;;9.85;3.70;;;;;;;14.03;55.72;101462.16;8037376;28;20064;-73
2021/06/23 01:15:33;;;;;;;8.70;3.55;;;;;;;14.08;55.79;101482.97;8028843;28;20550;-74
2021/06/23 01:19:26;;;;;;;10.43;3.67;;;;;;;13.96;55.93;101455.63;8019295;28;20036;-73
2021/06/23 01:23:17;;;;;;;12.23;4.97;;;;;;;14.04;55.82;101470.94;8037191;28;20025;-73
2021/06/23 01:27:09;;;;;;;11.57;4.28;;;;;;;14.02;56.01;101475.47;8036165;28;20485;-73
2021/06/23 01:31:00;;;;;;;5.65;3.30;;;;;;;13.99;55.79;101465.13;8035827;28;20055;-73
2021/06/23 01:34:55;;;;;;;6.38;3.85;;;;;;;13.99;55.55;101486.25;8037095;28;20532;-73
2021/06/23 01:38:46;;;;;;;8.70;3.70;;;;;;;13.92;55.85;101473.47;8043112;28;20093;-73
2021/06/23 01:42:37;;;;;;;8.60;3.67;;;;;;;13.91;55.98;101468.31;8041070;28;20028;-73
2021/06/23 01:46:28;;;;;;;6.93;4.07;;;;;;;13.97;55.94;101482.88;8042868;28;20044;-74
2021/06/23 01:50:22;;;;;;;5.10;3.97;;;;;;;13.97;55.97;101482.88;8041377;28;20111;-73
2021/06/23 01:54:18;;;;;;;5.68;3.90;;;;;;;13.96;56.06;101486.47;8041815;28;20021;-73
2021/06/23 01:58:11;;;;;;;5.88;4.03;;;;;;;13.86;55.97;101481.84;8040082;28;20082;-73
2021/06/23 02:02:23;;;;;;;10.50;4.28;;;;;;;13.94;55.78;101493.66;8040472;28;20086;-73
2021/06/23 02:06:47;;;;;;;6.93;3.78;;;;;;;13.92;56.03;101488.50;8041895;28;20044;-73
2021/06/23 02:10:44;;;;;;;8.82;3.75;;;;;;;13.92;56.01;101489.31;8030790;28;20108;-74
2021/06/23 02:14:53;;;;;;;9.45;4.18;;;;;;;13.90;55.87;101490.38;8029269;28;20455;-74
2021/06/23 02:19:00;;;;;;;9.25;4.90;;;;;;;13.86;56.09;101489.75;8042025;28;20028;-74
2021/06/23 02:23:08;;;;;;;9.20;3.78;;;;;;;13.87;56.05;101487.97;8040120;28;20713;-73
2021/06/23 02:27:00;;;;;;;6.20;3.53;;;;;;;13.83;56.02;101492.63;8033715;28;20033;-73
2021/06/23 02:30:56;;;;;;;7.00;3.85;;;;;;;13.90;56.02;101499.16;8039661;28;20036;-73
2021/06/23 02:34:53;;;;;;;10.55;4.00;;;;;;;13.89;56.01;101501.91;8041751;28;20040;-74
2021/06/23 02:38:54;;;;;;;20.00;4.75;;;;;;;13.89;56.18;101505.38;8035797;28;20048;-74
2021/06/23 02:42:47;;;;;;;7.45;3.92;;;;;;;13.88;56.12;101502.88;8039761;28;20103;-74
2021/06/23 02:46:42;;;;;;;9.15;4.28;;;;;;;13.87;56.09;101509.94;8039286;28;20047;-73
2021/06/23 02:51:08;;;;;;;8.30;4.07;;;;;;;13.88;55.92;101511.63;8040724;28;21421;-73
2021/06/23 02:55:03;;;;;;;8.32;4.45;;;;;;;13.86;56.25;101513.53;8039707;28;20123;-74
2021/06/23 02:58:58;;;;;;;5.90;3.60;;;;;;;13.81;56.12;101509.50;8039094;28;20032;-74
2021/06/23 03:02:49;;;;;;;9.77;4.28;;;;;;;13.81;56.18;101514.78;8039083;28;20036;-73
2021/06/23 03:06:40;;;;;;;5.03;3.60;;;;;;;13.85;56.07;101524.19;8039852;28;20093;-72
2021/06/23 03:10:31;;;;;;;11.57;4.35;;;;;;;13.83;56.07;101519.03;8040333;28;20058;-73
2021/06/23 03:14:30;;;;;;;11.43;4.07;;;;;;;13.80;56.18;101515.78;8038471;28;20055;-73
2021/06/23 03:18:22;;;;;;;7.65;4.43;;;;;;;13.84;56.11;101517.25;8038673;28;20037;-73
2021/06/23 03:22:13;;;;;;;12.10;4.13;;;;;;;13.81;56.16;101520.06;8040004;28;20042;-73
2021/06/23 03:26:04;;;;;;;9.82;4.30;;;;;;;13.83;56.18;101529.59;8038423;28;20033;-73
2021/06/23 03:29:56;;;;;;;8.13;3.83;;;;;;;13.84;56.06;101541.81;8039100;28;20500;-73
2021/06/23 03:33:47;;;;;;;5.55;3.85;;;;;;;13.80;56.20;101523.69;8038215;28;20560;-73
2021/06/23 03:38:00;;;;;;;7.63;4.20;;;;;;;13.81;56.21;101531.50;8035504;28;20044;-73
2021/06/23 03:41:51;;;;;;;8.85;3.63;;;;;;;13.81;56.14;101525.34;8037464;28;20044;-73
2021/06/23 03:45:42;;;;;;;6.88;3.72;;;;;;;13.77;56.32;101515.97;8037217;28;20028;-73
2021/06/23 03:49:33;;;;;;;8.20;4.45;;;;;;;13.78;56.24;101523.78;8029538;28;20032;-73
2021/06/23 03:53:24;;;;;;;7.82;4.00;;;;;;;13.79;56.31;101533.41;8037478;28;20028;-73
2021/06/23 03:57:15;;;;;;;6.60;3.80;;;;;;;13.76;56.26;101527.47;8037582;28;20485;-74
2021/06/23 04:01:06;;;;;;;7.40;3.53;;;;;;;13.77;56.16;101526.53;8036537;28;20033;-74
2021/06/23 04:05:04;;;;;;;10.25;3.95;;;;;;;13.74;56.36;101532.88;8037919;28;20040;-74
2021/06/23 04:09:02;;;;;;;7.72;3.85;;;;;;;13.75;56.29;101539.00;8037591;28;20078;-74
2021/06/23 04:12:53;;;;;;;6.78;3.40;;;;;;;13.75;56.33;101533.72;8038664;28;20029;-74
2021/06/23 04:16:44;;;;;;;9.43;3.80;;;;;;;13.71;56.32;101529.59;8037574;28;20043;-74
2021/06/23 04:20:37;;;;;;;7.80;4.03;;;;;;;13.74;56.09;101529.38;8036578;28;20036;-74
2021/06/23 04:24:37;;;;;;;9.65;4.18;;;;;;;13.72;55.90;101539.19;8037497;28;20029;-73
2021/06/23 04:28:29;;;;;;;8.63;4.68;;;;;;;13.70;56.33;101531.38;8038548;28;20062;-73
2021/06/23 04:32:20;;;;;;;9.88;4.40;;;;;;;13.74;56.01;101540.78;8020405;28;20385;-74
2021/06/23 04:36:19;;;;;;;7.90;4.20;;;;;;;13.72;56.10;101545.31;8037348;28;20485;-74
2021/06/23 04:40:14;;;;;;;5.43;3.83;;;;;;;13.67;55.99;101543.97;8036595;28;20036;-74
2021/06/23 04:44:07;;;;;;;5.60;4.20;;;;;;;13.68;56.00;101548.28;8037220;28;20027;-74
2021/06/23 04:47:58;;;;;;;8.93;4.70;;;;;;;13.70;56.28;101551.66;8036888;28;20117;-74
2021/06/23 04:51:49;;;;;;;8.50;4.25;;;;;;;13.66;56.10;101537.84;8036717;28;20032;-74
2021/06/23 04:55:40;;;;;;;9.35;4.40;;;;;;;13.69;56.01;101540.25;8038924;28;20186;-73
2021/06/23 04:59:35;;;;;;;8.93;4.55;;;;;;;13.69;55.97;101534.97;8029817;28;20032;-74
2021/06/23 05:03:26;;;;;;;9.95;3.83;;;;;;;13.72;56.14;101540.03;8038405;28;20029;-73
2021/06/23 05:07:17;;;;;;;5.97;3.70;;;;;;;13.69;56.04;101536.75;8036799;28;20038;-73
2021/06/23 05:11:07;;;;;;;7.50;3.90;;;;;;;13.74;56.22;101540.78;8041304;28;20067;-73
2021/06/23 05:14:58;;;;;;;9.13;4.05;;;;;;;13.75;56.13;101539.84;8043418;28;20037;-73
2021/06/23 05:18:51;;;;;;;6.05;3.92;;;;;;;13.78;56.08;101547.56;8044533;28;20029;-73
2021/06/23 05:22:42;;;;;;;7.30;4.13;;;;;;;13.78;56.26;101555.47;8042249;28;20043;-73
2021/06/23 05:26:33;;;;;;;7.68;4.00;;;;;;;13.77;56.07;101551.13;8042955;28;20035;-73
2021/06/23 05:30:24;;;;;;;10.27;4.32;;;;;;;13.80;56.08;101553.56;8043180;28;20028;-73
2021/06/23 05:34:14;;;;;;;15.52;5.53;;;;;;;13.83;56.32;101550.72;8043613;28;20063;-73
2021/06/23 05:38:05;;;;;;;7.15;3.88;;;;;;;13.80;56.13;101548.28;8041158;28;20484;-73
2021/06/23 05:41:56;;;;;;;10.05;4.43;;;;;;;13.86;56.28;101552.31;8042846;28;20111;-73
2021/06/23 05:45:46;;;;;;;10.65;4.75;;;;;;;13.88;56.33;101551.22;8043106;28;20036;-73
2021/06/23 05:49:37;;;;;;;9.73;4.72;;;;;;;13.92;56.33;101554.53;8025058;28;20392;-73
2021/06/23 05:53:28;;;;;;;11.23;5.20;;;;;;;13.90;56.31;101554.63;8042666;28;20499;-73
2021/06/23 05:57:18;;;;;;;7.28;3.45;;;;;;;13.96;56.19;101558.66;8043086;28;20035;-73
2021/06/23 06:01:09;;;;;;;9.60;4.32;;;;;;;13.94;56.20;101555.25;8042715;28;20044;-73
2021/06/23 06:04:59;;;;;;;10.27;4.72;;;;;;;13.95;56.22;101564.88;8037570;28;20538;-72
2021/06/23 06:08:50;;;;;;;11.90;4.40;;;;;;;13.99;56.12;101576.06;8024501;28;20040;-72
2021/06/23 06:12:41;;;;;;;9.20;4.18;;;;;;;13.99;56.14;101576.91;8041877;28;20040;-73
2021/06/23 06:16:32;;;;;;;7.78;3.67;;;;;;;14.02;56.28;101581.13;8041943;28;20033;-72
2021/06/23 06:20:23;;;;;;;12.85;4.53;;;;;;;14.00;56.22;101578.63;8040648;28;20064;-73
2021/06/23 06:24:14;;;;;;;10.35;4.45;;;;;;;14.01;56.22;101587.38;8039633;28;20025;-73
2021/06/23 06:28:04;;;;;;;11.80;4.65;;;;;;;14.00;56.19;101590.97;8040054;28;20111;-73
2021/06/23 06:31:55;;;;;;;8.27;3.47;;;;;;;13.98;56.33;101591.06;8041538;28;20036;-73
2021/06/23 06:35:46;;;;;;;7.55;3.80;;;;;;;13.99;56.17;101586.63;8037051;28;20634;-73
2021/06/23 06:39:37;;;;;;;8.02;4.32;;;;;;;13.98;56.23;101601.63;8022898;28;20554;-73
2021/06/23 06:43:27;;;;;;;8.23;4.32;;;;;;;13.99;56.26;101605.13;8040023;28;20036;-73
2021/06/23 06:47:18;;;;;;;12.75;4.68;;;;;;;13.98;56.25;101595.50;8041571;28;20040;-73
2021/06/23 06:51:09;;;;;;;8.45;3.85;;;;;;;14.02;56.43;101607.53;8040087;28;20093;-73
2021/06/23 06:54:59;;;;;;;7.28;3.90;;;;;;;14.03;56.33;101614.53;8020293;28;20043;-72
2021/06/23 06:58:50;;;;;;;12.65;4.20;;;;;;;14.00;56.22;101607.69;8027262;28;20044;-72
2021/06/23 07:02:41;;;;;;;14.88;4.53;;;;;;;14.05;56.37;101618.75;8009099;28;20517;-72
2021/06/23 07:06:31;;;;;;;6.43;4.00;;;;;;;14.07;56.19;101621.28;8026493;28;20427;-72
2021/06/23 07:10:22;;;;;;;8.15;4.22;;;;;;;14.11;56.65;101620.97;8027804;28;20645;-73
2021/06/23 07:14:14;;;;;;;9.57;4.50;;;;;;;14.13;56.38;101620.88;8026945;28;20040;-73
2021/06/23 07:18:05;;;;;;;14.30;4.95;;;;;;;14.18;56.46;101616.09;8027562;28;20078;-73
2021/06/23 07:21:55;;;;;;;8.80;4.70;;;;;;;14.20;56.70;101622.13;8027607;28;20159;-72
2021/06/23 07:25:46;;;;;;;10.95;5.05;;;;;;;14.20;56.63;101609.78;8024422;28;20603;-72
2021/06/23 07:29:37;;;;;;;8.88;4.10;;;;;;;14.29;56.27;101621.50;8026210;28;20037;-73
2021/06/23 07:33:27;;;;;;;11.32;4.32;;;;;;;14.33;56.70;101626.47;8023681;28;20420;-72
2021/06/23 07:37:18;;;;;;;11.48;4.85;;;;;;;14.35;56.52;101621.91;8026984;28;20040;-73
2021/06/23 07:41:09;;;;;;;9.63;4.38;;;;;;;14.40;56.67;101634.81;8026316;28;20277;-72
2021/06/23 07:45:02;;;;;;;8.48;4.45;;;;;;;14.38;56.55;101626.13;8026469;28;20497;-73
2021/06/23 07:48:55;;;;;;;12.20;4.88;;;;;;;14.42;56.62;101635.56;8026278;28;20129;-72
2021/06/23 07:52:53;;;;;;;9.95;4.32;;;;;;;14.46;56.76;101621.22;8018457;28;20025;-72
2021/06/23 08:09:11;;;;;;;12.07;4.35;;;;;;;14.58;56.57;101630.91;8024976;28;20412;-72
2021/06/23 08:13:03;;;;;;;9.15;4.40;;;;;;;14.61;56.74;101628.03;8024619;28;20036;-72
2021/06/23 08:16:53;;;;;;;7.47;3.95;;;;;;;14.71;56.80;101622.94;8023199;28;20596;-72
2021/06/23 08:20:44;;;;;;;10.50;4.32;;;;;;;14.80;56.91;101628.41;8019930;28;20036;-73
2021/06/23 08:24:35;;;;;;;7.25;4.47;;;;;;;14.89;56.86;101636.63;8018930;28;20036;-72
2021/06/23 08:28:25;;;;;;;10.23;4.65;;;;;;;14.93;56.72;101641.59;8024200;28;20038;-72
2021/06/23 08:32:16;;;;;;;7.40;3.88;;;;;;;14.94;56.88;101630.06;8024959;28;20032;-72
2021/06/23 08:36:09;;;;;;;16.10;4.30;;;;;;;14.99;56.64;101629.72;8022815;28;20040;-73
2021/06/23 08:39:59;;;;;;;8.35;4.03;;;;;;;14.99;56.53;101640.31;8022378;28;20082;-72
2021/06/23 08:43:50;;;;;;;7.70;4.32;;;;;;;15.03;56.55;101639.13;8020017;28;20033;-73
2021/06/23 08:47:43;;;;;;;9.38;4.57;;;;;;;15.07;56.56;101635.31;8024116;28;20044;-72
2021/06/23 08:51:37;;;;;;;6.95;4.43;;;;;;;15.13;56.41;101640.97;8022383;28;20043;-72
2021/06/23 08:55:27;;;;;;;10.52;4.15;;;;;;;15.15;56.44;101630.31;8023228;28;20029;-73
2021/06/23 08:59:18;;;;;;;9.00;3.83;;;;;;;15.24;56.23;101634.94;8024988;28;20050;-72
2021/06/23 09:03:09;;;;;;;7.88;4.50;;;;;;;15.19;56.25;101623.81;8023843;28;20078;-72
2021/06/23 09:07:00;;;;;;;13.73;4.75;;;;;;;15.30;56.05;101637.13;8022663;28;20032;-73
2021/06/23 09:10:50;;;;;;;10.63;4.32;;;;;;;15.36;56.02;101642.00;8024709;28;20059;-73
2021/06/23 09:14:41;;;;;;;11.05;3.97;;;;;;;15.38;55.94;101641.84;8024197;28;20710;-73
2021/06/23 09:18:35;;;;;;;9.88;4.18;;;;;;;15.35;55.98;101635.00;8024456;28;20064;-72
2021/06/23 09:22:39;;;;;;;9.60;4.20;;;;;;;15.41;55.75;101642.50;8024416;28;20025;-73
2021/06/23 09:26:37;;;;;;;10.93;4.20;;;;;;;15.42;55.84;101649.47;8022835;28;20527;-73
2021/06/23 09:30:34;;;;;;;6.22;4.32;;;;;;;15.42;55.69;101657.41;8025353;28;20794;-73
2021/06/23 09:34:27;;;;;;;9.57;4.55;;;;;;;15.36;55.64;101652.56;8024659;28;20447;-73
2021/06/23 09:38:38;;;;;;;13.13;4.85;;;;;;;15.38;55.47;101658.59;8020988;28;20200;-73
2021/06/23 09:42:32;;;;;;;8.30;4.97;;;;;;;15.34;55.39;101649.19;8021887;28;20039;-73
2021/06/23 09:46:35;;;;;;;6.43;3.72;;;;;;;15.38;55.43;101655.94;8022634;28;20483;-73
2021/06/23 09:50:28;;;;;;;13.52;5.05;;;;;;;15.41;55.44;101655.75;8025426;28;20070;-73
2021/06/23 09:54:25;;;;;;;12.55;5.55;;;;;;;15.45;55.33;101659.84;8021242;28;20070;-73
2021/06/23 09:58:23;;;;;;;10.85;5.55;;;;;;;15.43;55.21;101648.50;8027529;28;20067;-73
2021/06/23 10:02:28;;;;;;;11.43;5.15;;;;;;;15.48;55.18;101656.97;8028885;28;20983;-73
2021/06/23 10:06:21;;;;;;;11.43;5.10;;;;;;;15.53;55.33;101659.28;8029033;28;20076;-73
2021/06/23 10:10:16;;;;;;;6.88;4.63;;;;;;;15.54;55.20;101653.84;8030515;28;20024;-73
2021/06/23 10:14:08;;;;;;;13.38;5.18;;;;;;;15.54;55.03;101647.72;8028548;28;20044;-73
2021/06/23 10:18:01;;;;;;;10.32;5.03;;;;;;;15.60;55.08;101657.84;8029535;28;20028;-73
2021/06/23 10:21:53;;;;;;;10.15;5.50;;;;;;;15.64;55.13;101660.16;8028865;28;20047;-73
2021/06/23 10:25:44;;;;;;;7.70;5.05;;;;;;;15.69;55.11;101659.81;8025182;28;20033;-73
2021/06/23 10:29:35;;;;;;;12.70;4.65;;;;;;;15.69;54.96;101646.56;8029639;28;20155;-73
2021/06/23 10:33:34;;;;;;;9.00;4.90;;;;;;;15.77;54.76;101659.22;8028795;28;20025;-73
2021/06/23 10:37:28;;;;;;;13.10;5.15;;;;;;;15.76;54.93;101652.22;8028356;28;20044;-74
2021/06/23 10:41:21;;;;;;;12.43;4.97;;;;;;;15.80;54.88;101646.59;8029026;28;20093;-74
2021/06/23 10:45:15;;;;;;;8.20;4.45;;;;;;;15.85;54.80;101651.53;8028916;28;20484;-73
2021/06/23 10:49:06;;;;;;;14.50;4.93;;;;;;;15.84;55.00;101642.75;8027904;28;20032;-74
2021/06/23 10:52:56;;;;;;;5.25;3.78;;;;;;;15.88;54.94;101646.84;8027910;28;20487;-74
2021/06/23 10:56:47;;;;;;;9.43;4.70;;;;;;;15.92;54.80;101653.59;8026600;28;20032;-73
2021/06/23 11:00:40;;;;;;;9.02;4.35;;;;;;;16.00;54.62;101661.81;8027527;28;20051;-74
2021/06/23 11:05:03;;;;;;;9.85;4.15;;;;;;;16.02;54.82;101667.00;8028597;28;20846;-73
2021/06/23 11:09:23;;;;;;;10.52;4.50;;;;;;;16.04;54.55;101665.91;8027130;28;20052;-73
2021/06/23 11:13:19;;;;;;;13.90;3.90;;;;;;;16.10;54.40;101665.47;8027126;28;20040;-73
2021/06/23 11:17:30;;;;;;;10.38;4.28;;;;;;;16.13;54.54;101667.91;8026517;28;20105;-74
2021/06/23 11:21:22;;;;;;;16.33;5.00;;;;;;;16.21;54.45;101664.66;8027241;28;20037;-74
2021/06/23 11:25:35;;;;;;;6.28;3.63;;;;;;;16.24;54.26;101664.44;8007005;28;20083;-74
2021/06/23 11:29:27;;;;;;;7.00;3.13;;;;;;;16.26;54.51;101661.66;8027888;28;20034;-74
2021/06/23 11:33:26;;;;;;;10.43;3.83;;;;;;;16.31;54.36;101668.28;8024955;28;20029;-73
2021/06/23 11:37:19;;;;;;;7.47;3.72;;;;;;;16.26;54.38;101648.38;8026108;28;20397;-73
2021/06/23 11:41:10;;;;;;;8.25;4.28;;;;;;;16.36;54.32;101658.19;8026358;28;20165;-73
2021/06/23 11:45:01;;;;;;;10.50;3.63;;;;;;;16.43;54.24;101659.38;8023797;28;20487;-73
2021/06/23 11:48:52;;;;;;;8.38;4.07;;;;;;;16.42;54.21;101652.38;8026721;28;20132;-73
2021/06/23 11:52:43;;;;;;;7.22;3.20;;;;;;;16.46;54.27;101651.16;8023862;28;20060;-73
2021/06/23 11:56:34;;;;;;;8.10;3.72;;;;;;;16.53;54.20;101655.03;8021763;28;20700;-73
2021/06/23 12:00:27;;;;;;;12.18;4.18;;;;;;;16.56;54.36;101654.81;8023057;28;20085;-73
2021/06/23 12:04:18;;;;;;;8.60;3.72;;;;;;;16.62;54.14;101650.78;8022809;28;20038;-73
2021/06/23 12:08:09;;;;;;;7.68;4.07;;;;;;;16.70;54.20;101655.53;8023587;28;20041;-72
2021/06/23 12:12:00;;;;;;;11.65;4.00;;;;;;;16.73;53.92;101658.75;8024012;28;20028;-73
2021/06/23 12:15:52;;;;;;;11.13;3.17;;;;;;;16.78;53.92;101664.53;8025350;28;20032;-72
2021/06/23 12:19:45;;;;;;;8.15;3.85;;;;;;;16.82;53.95;101667.81;8024503;28;20033;-73
2021/06/23 12:23:37;;;;;;;7.07;3.67;;;;;;;16.86;53.69;101661.28;8019404;28;20032;-73
2021/06/23 12:27:27;;;;;;;10.32;3.40;;;;;;;16.90;53.74;101662.72;8024140;28;20036;-73
2021/06/23 12:31:19;;;;;;;10.43;3.78;;;;;;;16.99;53.88;101659.34;8025072;28;20082;-73
2021/06/23 12:35:10;;;;;;;8.52;3.38;;;;;;;17.08;53.53;101655.94;8022987;28;20107;-72
2021/06/23 12:39:00;;;;;;;11.57;3.63;;;;;;;17.16;53.90;101661.47;8024889;28;20040;-73
2021/06/23 12:42:51;;;;;;;7.47;3.63;;;;;;;17.28;53.80;101662.31;8024978;28;20123;-73
2021/06/23 12:46:42;;;;;;;8.80;4.40;;;;;;;17.42;53.55;101656.69;8023436;28;20436;-73
2021/06/23 12:50:34;;;;;;;9.68;4.15;;;;;;;17.50;53.51;101648.94;8024757;28;20048;-73
2021/06/23 12:54:28;;;;;;;7.40;3.78;;;;;;;17.63;53.15;101648.75;8021209;28;20032;-73
2021/06/23 12:58:19;;;;;;;7.07;3.85;;;;;;;17.75;53.00;101653.91;8024969;28;20040;-72
2021/06/23 13:02:09;;;;;;;10.95;4.70;;;;;;;17.81;53.06;101650.75;8024491;28;20033;-73
2021/06/23 13:06:01;;;;;;;9.90;3.60;;;;;;;17.89;52.94;101650.94;8024514;28;20075;-73
2021/06/23 13:09:52;;;;;;;7.47;3.45;;;;;;;17.97;52.74;101653.78;8024868;28;20480;-73
2021/06/23 13:13:42;;;;;;;8.40;3.63;;;;;;;18.07;52.85;101660.97;8023750;28;20042;-72
2021/06/23 13:17:34;;;;;;;7.47;4.00;;;;;;;18.15;52.98;101662.00;8024067;28;20036;-73
2021/06/23 13:21:25;;;;;;;10.85;3.92;;;;;;;18.17;52.68;101641.44;8022270;28;20056;-73
2021/06/23 13:25:15;;;;;;;8.30;4.35;;;;;;;18.27;52.60;101660.13;8018811;28;20032;-72
2021/06/23 13:29:06;;;;;;;9.55;4.40;;;;;;;18.26;52.37;101645.97;8022989;28;21531;-73
2021/06/23 13:32:57;;;;;;;9.25;4.43;;;;;;;18.30;52.31;101660.69;8027342;28;20564;-73
2021/06/23 13:36:47;;;;;;;12.98;4.22;;;;;;;18.37;51.91;101659.19;8029715;28;20051;-73
2021/06/23 13:40:38;;;;;;;13.73;4.90;;;;;;;18.40;51.95;101661.56;8029203;28;20043;-73
2021/06/23 13:44:29;;;;;;;14.43;4.68;;;;;;;18.42;51.64;101658.78;8029222;28;20401;-73
2021/06/23 13:48:20;;;;;;;12.05;4.53;;;;;;;18.42;51.87;101659.63;8028905;28;20796;-73
2021/06/23 13:52:11;;;;;;;12.93;4.90;;;;;;;18.46;51.79;101660.22;8030306;28;20094;-73
2021/06/23 13:56:02;;;;;;;8.25;3.92;;;;;;;18.47;52.00;101655.75;8025157;28;20153;-73
2021/06/23 13:59:53;;;;;;;13.38;4.43;;;;;;;18.53;51.90;101652.53;8029402;28;20044;-73
2021/06/23 14:03:43;;;;;;;8.48;4.53;;;;;;;18.54;51.97;101654.25;8025542;28;20047;-73
2021/06/23 14:07:34;;;;;;;6.65;3.95;;;;;;;18.55;51.45;101653.28;8028577;28;20599;-72
2021/06/23 14:11:25;;;;;;;6.32;4.70;;;;;;;18.57;51.42;101644.16;8028015;28;20021;-73
2021/06/23 14:15:16;;;;;;;11.63;4.53;;;;;;;18.62;51.35;101643.75;8028912;28;20036;-73
2021/06/23 14:19:07;;;;;;;9.40;4.10;;;;;;;18.65;51.38;101648.81;8028227;28;20032;-73
2021/06/23 14:23:13;;;;;;;8.30;4.43;;;;;;;18.66;51.66;101645.19;8026265;28;20434;-73
2021/06/23 14:27:06;;;;;;;9.10;4.10;;;;;;;18.73;51.17;101644.50;8010199;28;20037;-73
2021/06/23 14:30:56;;;;;;;11.05;4.32;;;;;;;18.74;51.02;101653.31;8026339;28;20108;-73
2021/06/23 14:34:47;;;;;;;7.65;3.85;;;;;;;18.73;51.03;101649.00;8028152;28;20545;-73
2021/06/23 14:38:38;;;;;;;9.52;4.28;;;;;;;18.73;50.93;101646.34;8029311;28;20670;-73
2021/06/23 14:42:28;;;;;;;16.08;4.75;;;;;;;18.67;50.70;101638.88;8026450;28;22178;-73
2021/06/23 14:46:19;;;;;;;10.82;4.07;;;;;;;18.69;50.96;101643.09;8027656;28;20481;-73
2021/06/23 14:50:11;;;;;;;8.45;4.70;;;;;;;18.65;50.90;101636.34;8026596;28;20043;-73
2021/06/23 14:54:02;;;;;;;10.70;4.93;;;;;;;18.59;50.63;101628.91;8025716;28;20037;-73
2021/06/23 14:57:54;;;;;;;7.70;4.38;;;;;;;18.62;50.66;101638.44;8024938;28;20041;-73
2021/06/23 15:01:45;;;;;;;9.15;3.95;;;;;;;18.59;50.89;101644.03;8027923;28;20544;-73
2021/06/23 15:05:35;;;;;;;13.30;4.25;;;;;;;18.56;50.70;101637.19;8025527;28;20169;-73
2021/06/23 15:09:26;;;;;;;5.78;3.78;;;;;;;18.53;50.57;101629.44;8027512;28;20036;-73
2021/06/23 15:13:16;;;;;;;9.93;5.07;;;;;;;18.57;50.30;101635.34;8026178;28;20043;-74
2021/06/23 15:17:07;;;;;;;8.50;4.25;;;;;;;18.51;50.29;101631.41;8027197;28;21343;-73
2021/06/23 15:20:58;;;;;;;11.88;3.85;;;;;;;18.48;50.54;101628.19;8027293;28;20485;-73
2021/06/23 15:24:49;;;;;;;7.95;3.88;;;;;;;18.30;50.27;101609.31;8022877;28;20487;-73
2021/06/23 15:28:43;;;;;;;9.57;4.18;;;;;;;18.35;50.31;101623.91;8027594;28;20032;-73
2021/06/23 15:32:34;;;;;;;8.68;4.03;;;;;;;18.37;50.46;101632.56;8026357;28;20241;-72
2021/06/23 15:36:25;;;;;;;11.07;3.70;;;;;;;18.34;50.07;101624.88;8027082;28;20584;-72
2021/06/23 15:40:15;;;;;;;5.53;3.50;;;;;;;18.31;50.43;101619.84;8026579;28;20040;-72
2021/06/23 15:44:06;;;;;;;4.70;3.30;;;;;;;18.21;50.32;101607.44;8025292;28;20039;-72
2021/06/23 15:47:57;;;;;;;9.63;4.13;;;;;;;18.21;50.28;101613.63;8026303;28;20040;-72
2021/06/23 15:51:48;;;;;;;6.30;3.40;;;;;;;18.19;50.28;101610.22;8026348;28;20033;-72
2021/06/23 15:55:39;;;;;;;9.18;3.78;;;;;;;18.19;50.29;101601.44;8019192;28;20048;-72
2021/06/23 15:59:29;;;;;;;8.13;4.00;;;;;;;18.14;50.37;101612.47;8024658;28;20044;-72
2021/06/23 16:03:20;;;;;;;7.82;4.13;;;;;;;18.15;50.07;101598.16;8025800;28;20077;-72
2021/06/23 16:07:14;;;;;;;11.13;3.30;;;;;;;18.14;50.19;101601.84;8024697;28;20036;-72
2021/06/23 16:11:05;;;;;;;7.78;3.42;;;;;;;18.10;50.31;101588.94;8024417;28;20548;-72
2021/06/23 16:14:55;;;;;;;6.10;3.10;;;;;;;18.17;50.35;101596.25;8025553;28;20134;-73
2021/06/23 16:18:46;;;;;;;8.43;3.85;;;;;;;18.17;50.26;101590.91;8024750;28;20060;-73
2021/06/23 16:22:37;;;;;;;10.15;4.00;;;;;;;18.14;50.25;101588.53;8023367;28;20046;-73
2021/06/23 16:26:28;;;;;;;8.02;3.35;;;;;;;18.14;50.49;101588.53;8022593;28;20052;-72
2021/06/23 16:30:20;;;;;;;8.65;4.00;;;;;;;18.18;50.14;101591.78;8025496;28;20097;-73
2021/06/23 16:34:11;;;;;;;11.73;4.32;;;;;;;18.17;50.17;101582.09;8024783;28;20039;-72
2021/06/23 16:38:02;;;;;;;9.00;4.25;;;;;;;18.18;50.01;101589.97;8024245;28;20040;-73
2021/06/23 16:41:53;;;;;;;8.57;4.03;;;;;;;18.15;50.23;101584.88;8025048;28;20067;-72
2021/06/23 16:45:43;;;;;;;7.18;3.22;;;;;;;18.14;49.96;101582.38;8023914;28;20036;-73
2021/06/23 16:49:34;;;;;;;10.80;4.13;;;;;;;18.13;50.21;101578.88;8024559;28;20691;-72
2021/06/23 16:53:25;;;;;;;8.73;3.67;;;;;;;18.11;50.67;101580.81;8021272;28;21292;-73
2021/06/23 16:57:15;;;;;;;12.68;3.85;;;;;;;18.09;50.33;101565.97;8024995;28;20619;-72
2021/06/23 17:01:13;;;;;;;8.25;3.60;;;;;;;18.06;50.00;101567.09;8024467;28;20037;-72
2021/06/23 17:05:05;;;;;;;7.70;3.55;;;;;;;18.01;50.39;101566.66;8025243;28;20473;-72
2021/06/23 17:08:56;;;;;;;7.40;3.60;;;;;;;17.98;49.92;101556.28;8030197;28;20107;-72
2021/06/23 17:12:47;;;;;;;7.10;3.63;;;;;;;18.00;50.33;101570.25;8029768;28;20039;-70
2021/06/23 17:16:37;;;;;;;11.90;3.75;;;;;;;17.97;50.30;101565.22;8030124;28;20036;-72
2021/06/23 17:20:28;;;;;;;8.63;3.70;;;;;;;17.95;50.00;101564.50;8029997;28;20045;-72
2021/06/23 17:24:20;;;;;;;7.93;3.80;;;;;;;17.91;50.25;101563.06;8028039;28;20408;-71
2021/06/23 17:28:11;;;;;;;9.38;3.72;;;;;;;17.89;50.51;101559.72;8027430;28;20491;-71
2021/06/23 17:32:02;;;;;;;8.73;3.22;;;;;;;17.87;50.29;101562.50;8029878;28;20040;-72
2021/06/23 17:35:53;;;;;;;7.10;3.75;;;;;;;17.86;50.16;101565.28;8027622;28;20078;-71
2021/06/23 17:39:44;;;;;;;8.73;3.63;;;;;;;17.81;50.37;101572.84;8030238;28;20036;-71
2021/06/23 17:43:36;;;;;;;11.75;4.00;;;;;;;17.78;50.35;101573.91;8027751;28;20037;-72
2021/06/23 17:47:26;;;;;;;7.07;3.60;;;;;;;17.74;50.57;101574.31;8030109;28;20032;-71
2021/06/23 17:51:17;;;;;;;6.82;3.53;;;;;;;17.69;50.66;101577.38;8029663;28;20152;-69
2021/06/23 17:55:08;;;;;;;8.00;3.90;;;;;;;17.65;50.63;101581.25;8027158;28;20040;-69
2021/06/23 17:58:59;;;;;;;9.00;3.53;;;;;;;17.64;50.67;101581.38;8026085;28;20032;-70
2021/06/23 18:02:50;;;;;;;10.50;4.25;;;;;;;17.53;50.77;101567.16;8029793;28;20116;-69
2021/06/23 18:06:41;;;;;;;15.88;4.00;;;;;;;17.55;50.53;101583.81;8029384;28;20049;-70
2021/06/23 18:10:33;;;;;;;7.63;4.20;;;;;;;17.50;50.94;101587.84;8029690;28;20626;-69